sensor_id;sensor_type;location;lat;lon;timestamp;P1;durP1;ratioP1;P2;durP2;ratioP2
2928;SDS011;1474;51.460;7.150;2023-07-22T00:00:22;6.13;;;4.72;;
2928;SDS011;1474;51.460;7.150;2023-07-22T00:02:48;9.25;;;5.18;;
2928;SDS011;1474;51.460;7.150;2023-07-22T00:05:15;6.30;;;4.57;;
2928;SDS011;1474;51.460;7.150;2023-07-22T00:07:49;8.00;;;5.75;;
2928;SDS011;1474;51.460;7.150;2023-07-22T00:10:20;7.55;;;5.53;;
2928;SDS011;1474;51.460;7.150;2023-07-22T00:12:46;7.75;;;5.60;;
2928;SDS011;1474;51.460;7.150;2023-07-22T00:15:12;7.20;;;5.05;;
2928;SDS011;1474;51.460;7.150;2023-07-22T00:17:38;7.40;;;5.40;;
2928;SDS011;1474;51.460;7.150;2023-07-22T00:20:05;8.15;;;4.93;;
2928;SDS011;1474;51.460;7.150;2023-07-22T00:22:35;7.47;;;5.18;;
2928;SDS011;1474;51.460;7.150;2023-07-22T00:25:06;8.13;;;5.55;;
2928;SDS011;1474;51.460;7.150;2023-07-22T00:27:36;8.32;;;5.70;;
2928;SDS011;1474;51.460;7.150;2023-07-22T00:30:09;7.43;;;5.53;;
2928;SDS011;1474;51.460;7.150;2023-07-22T00:32:36;9.77;;;6.10;;
2928;SDS011;1474;51.460;7.150;2023-07-22T00:35:03;8.50;;;4.82;;
2928;SDS011;1474;51.460;7.150;2023-07-22T00:37:31;9.07;;;5.70;;
2928;SDS011;1474;51.460;7.150;2023-07-22T00:39:58;7.55;;;5.55;;
2928;SDS011;1474;51.460;7.150;2023-07-22T00:42:26;8.32;;;4.75;;
2928;SDS011;1474;51.460;7.150;2023-07-22T00:44:53;9.73;;;5.45;;
2928;SDS011;1474;51.460;7.150;2023-07-22T00:47:19;8.02;;;5.38;;
2928;SDS011;1474;51.460;7.150;2023-07-22T00:49:47;6.13;;;4.40;;
2928;SDS011;1474;51.460;7.150;2023-07-22T00:52:14;7.22;;;5.15;;
2928;SDS011;1474;51.460;7.150;2023-07-22T00:54:41;10.85;;;5.60;;
2928;SDS011;1474;51.460;7.150;2023-07-22T00:57:07;7.22;;;4.90;;
2928;SDS011;1474;51.460;7.150;2023-07-22T00:59:35;8.75;;;5.20;;
2928;SDS011;1474;51.460;7.150;2023-07-22T01:02:01;11.02;;;6.13;;
2928;SDS011;1474;51.460;7.150;2023-07-22T01:04:29;8.30;;;5.80;;
2928;SDS011;1474;51.460;7.150;2023-07-22T01:07:00;8.18;;;5.25;;
2928;SDS011;1474;51.460;7.150;2023-07-22T01:09:35;8.07;;;6.03;;
2928;SDS011;1474;51.460;7.150;2023-07-22T01:12:06;7.70;;;5.70;;
2928;SDS011;1474;51.460;7.150;2023-07-22T01:14:34;8.02;;;5.55;;
2928;SDS011;1474;51.460;7.150;2023-07-22T01:17:07;6.32;;;5.15;;
2928;SDS011;1474;51.460;7.150;2023-07-22T01:19:35;9.63;;;5.55;;
2928;SDS011;1474;51.460;7.150;2023-07-22T01:22:02;8.20;;;5.53;;
2928;SDS011;1474;51.460;7.150;2023-07-22T01:24:35;7.72;;;5.20;;
2928;SDS011;1474;51.460;7.150;2023-07-22T01:27:03;8.65;;;5.35;;
2928;SDS011;1474;51.460;7.150;2023-07-22T01:29:33;8.10;;;5.40;;
2928;SDS011;1474;51.460;7.150;2023-07-22T01:31:59;7.57;;;5.15;;
2928;SDS011;1474;51.460;7.150;2023-07-22T01:34:25;8.75;;;5.40;;
2928;SDS011;1474;51.460;7.150;2023-07-22T01:36:51;7.20;;;5.28;;
2928;SDS011;1474;51.460;7.150;2023-07-22T01:39:18;7.10;;;5.35;;
2928;SDS011;1474;51.460;7.150;2023-07-22T01:41:45;7.70;;;5.47;;
2928;SDS011;1474;51.460;7.150;2023-07-22T01:44:11;7.65;;;5.03;;
2928;SDS011;1474;51.460;7.150;2023-07-22T01:46:37;7.68;;;5.15;;
2928;SDS011;1474;51.460;7.150;2023-07-22T01:49:04;9.40;;;5.93;;
2928;SDS011;1474;51.460;7.150;2023-07-22T01:51:34;5.57;;;4.40;;
2928;SDS011;1474;51.460;7.150;2023-07-22T01:54:02;7.82;;;5.40;;
2928;SDS011;1474;51.460;7.150;2023-07-22T01:56:29;7.95;;;5.35;;
2928;SDS011;1474;51.460;7.150;2023-07-22T01:58:55;6.22;;;4.70;;
2928;SDS011;1474;51.460;7.150;2023-07-22T02:01:21;8.68;;;5.22;;
2928;SDS011;1474;51.460;7.150;2023-07-22T02:03:47;6.45;;;4.78;;
2928;SDS011;1474;51.460;7.150;2023-07-22T02:06:13;9.75;;;5.45;;
2928;SDS011;1474;51.460;7.150;2023-07-22T02:08:39;6.40;;;4.50;;
2928;SDS011;1474;51.460;7.150;2023-07-22T02:11:05;10.38;;;5.75;;
2928;SDS011;1474;51.460;7.150;2023-07-22T02:13:34;10.23;;;5.72;;
2928;SDS011;1474;51.460;7.150;2023-07-22T02:16:01;6.80;;;4.65;;
2928;SDS011;1474;51.460;7.150;2023-07-22T02:18:28;7.97;;;4.95;;
2928;SDS011;1474;51.460;7.150;2023-07-22T02:20:54;7.85;;;5.28;;
2928;SDS011;1474;51.460;7.150;2023-07-22T02:23:21;8.60;;;5.20;;
2928;SDS011;1474;51.460;7.150;2023-07-22T02:25:49;5.90;;;4.38;;
2928;SDS011;1474;51.460;7.150;2023-07-22T02:28:19;8.27;;;4.85;;
2928;SDS011;1474;51.460;7.150;2023-07-22T02:30:51;6.85;;;4.85;;
2928;SDS011;1474;51.460;7.150;2023-07-22T02:33:18;7.95;;;5.00;;
2928;SDS011;1474;51.460;7.150;2023-07-22T02:35:47;12.35;;;5.75;;
2928;SDS011;1474;51.460;7.150;2023-07-22T02:38:13;9.05;;;5.70;;
2928;SDS011;1474;51.460;7.150;2023-07-22T02:40:39;6.97;;;5.00;;
2928;SDS011;1474;51.460;7.150;2023-07-22T02:43:06;8.32;;;5.03;;
2928;SDS011;1474;51.460;7.150;2023-07-22T02:45:35;8.55;;;4.97;;
2928;SDS011;1474;51.460;7.150;2023-07-22T02:48:02;8.15;;;5.18;;
2928;SDS011;1474;51.460;7.150;2023-07-22T02:50:28;9.88;;;5.30;;
2928;SDS011;1474;51.460;7.150;2023-07-22T02:52:55;7.03;;;5.13;;
2928;SDS011;1474;51.460;7.150;2023-07-22T02:55:21;8.48;;;5.05;;
2928;SDS011;1474;51.460;7.150;2023-07-22T02:57:48;8.50;;;4.65;;
2928;SDS011;1474;51.460;7.150;2023-07-22T03:00:15;7.47;;;5.32;;
2928;SDS011;1474;51.460;7.150;2023-07-22T03:02:50;7.22;;;4.72;;
2928;SDS011;1474;51.460;7.150;2023-07-22T03:05:17;9.02;;;5.68;;
2928;SDS011;1474;51.460;7.150;2023-07-22T03:07:44;7.75;;;5.15;;
2928;SDS011;1474;51.460;7.150;2023-07-22T03:10:10;7.18;;;4.53;;
2928;SDS011;1474;51.460;7.150;2023-07-22T03:12:36;11.32;;;5.03;;
2928;SDS011;1474;51.460;7.150;2023-07-22T03:15:02;9.73;;;5.32;;
2928;SDS011;1474;51.460;7.150;2023-07-22T03:17:34;8.35;;;5.30;;
2928;SDS011;1474;51.460;7.150;2023-07-22T03:20:02;8.27;;;5.20;;
2928;SDS011;1474;51.460;7.150;2023-07-22T03:22:44;8.52;;;4.28;;
2928;SDS011;1474;51.460;7.150;2023-07-22T03:25:11;8.25;;;5.45;;
2928;SDS011;1474;51.460;7.150;2023-07-22T03:27:39;9.73;;;4.82;;
2928;SDS011;1474;51.460;7.150;2023-07-22T03:30:06;7.72;;;5.20;;
2928;SDS011;1474;51.460;7.150;2023-07-22T03:32:33;6.90;;;5.38;;
2928;SDS011;1474;51.460;7.150;2023-07-22T03:35:00;6.50;;;4.50;;
2928;SDS011;1474;51.460;7.150;2023-07-22T03:37:26;8.20;;;5.50;;
2928;SDS011;1474;51.460;7.150;2023-07-22T03:39:53;7.47;;;4.78;;
2928;SDS011;1474;51.460;7.150;2023-07-22T03:42:19;8.77;;;5.85;;
2928;SDS011;1474;51.460;7.150;2023-07-22T03:44:45;9.02;;;4.57;;
2928;SDS011;1474;51.460;7.150;2023-07-22T03:47:11;7.00;;;5.05;;
2928;SDS011;1474;51.460;7.150;2023-07-22T03:49:36;10.40;;;5.88;;
2928;SDS011;1474;51.460;7.150;2023-07-22T03:52:02;7.72;;;4.97;;
2928;SDS011;1474;51.460;7.150;2023-07-22T03:54:28;6.75;;;5.30;;
2928;SDS011;1474;51.460;7.150;2023-07-22T03:56:54;6.93;;;4.93;;
2928;SDS011;1474;51.460;7.150;2023-07-22T03:59:20;8.65;;;5.18;;
2928;SDS011;1474;51.460;7.150;2023-07-22T04:01:46;8.18;;;5.43;;
2928;SDS011;1474;51.460;7.150;2023-07-22T04:04:12;6.47;;;4.78;;
2928;SDS011;1474;51.460;7.150;2023-07-22T04:06:38;5.70;;;4.20;;
2928;SDS011;1474;51.460;7.150;2023-07-22T04:09:04;8.60;;;5.28;;
2928;SDS011;1474;51.460;7.150;2023-07-22T04:11:30;6.55;;;4.32;;
2928;SDS011;1474;51.460;7.150;2023-07-22T04:13:55;7.15;;;5.07;;
2928;SDS011;1474;51.460;7.150;2023-07-22T04:16:21;7.68;;;5.25;;
2928;SDS011;1474;51.460;7.150;2023-07-22T04:18:47;6.82;;;5.05;;
2928;SDS011;1474;51.460;7.150;2023-07-22T04:21:13;9.27;;;5.55;;
2928;SDS011;1474;51.460;7.150;2023-07-22T04:23:38;9.00;;;4.45;;
2928;SDS011;1474;51.460;7.150;2023-07-22T04:26:04;5.82;;;4.00;;
2928;SDS011;1474;51.460;7.150;2023-07-22T04:28:32;7.07;;;4.68;;
2928;SDS011;1474;51.460;7.150;2023-07-22T04:31:00;5.57;;;4.03;;
2928;SDS011;1474;51.460;7.150;2023-07-22T04:33:26;6.80;;;4.43;;
2928;SDS011;1474;51.460;7.150;2023-07-22T04:35:57;7.28;;;4.80;;
2928;SDS011;1474;51.460;7.150;2023-07-22T04:38:24;7.80;;;4.10;;
2928;SDS011;1474;51.460;7.150;2023-07-22T04:40:50;8.10;;;4.55;;
2928;SDS011;1474;51.460;7.150;2023-07-22T04:43:16;6.80;;;4.00;;
2928;SDS011;1474;51.460;7.150;2023-07-22T04:45:45;6.25;;;3.60;;
2928;SDS011;1474;51.460;7.150;2023-07-22T04:48:15;7.82;;;4.28;;
2928;SDS011;1474;51.460;7.150;2023-07-22T04:50:43;7.65;;;4.20;;
2928;SDS011;1474;51.460;7.150;2023-07-22T04:53:10;5.97;;;4.13;;
2928;SDS011;1474;51.460;7.150;2023-07-22T04:55:40;6.80;;;3.72;;
2928;SDS011;1474;51.460;7.150;2023-07-22T04:58:06;7.65;;;5.00;;
2928;SDS011;1474;51.460;7.150;2023-07-22T05:00:33;6.55;;;4.35;;
2928;SDS011;1474;51.460;7.150;2023-07-22T05:02:59;9.45;;;4.95;;
2928;SDS011;1474;51.460;7.150;2023-07-22T05:05:25;7.55;;;3.55;;
2928;SDS011;1474;51.460;7.150;2023-07-22T05:07:51;6.78;;;4.13;;
2928;SDS011;1474;51.460;7.150;2023-07-22T05:10:17;5.07;;;3.72;;
2928;SDS011;1474;51.460;7.150;2023-07-22T05:12:44;5.35;;;3.70;;
2928;SDS011;1474;51.460;7.150;2023-07-22T05:15:10;5.78;;;3.83;;
2928;SDS011;1474;51.460;7.150;2023-07-22T05:17:38;5.20;;;3.55;;
2928;SDS011;1474;51.460;7.150;2023-07-22T05:20:04;4.72;;;3.58;;
2928;SDS011;1474;51.460;7.150;2023-07-22T05:22:34;4.90;;;3.45;;
2928;SDS011;1474;51.460;7.150;2023-07-22T05:25:00;5.60;;;3.97;;
2928;SDS011;1474;51.460;7.150;2023-07-22T05:27:26;6.88;;;3.80;;
2928;SDS011;1474;51.460;7.150;2023-07-22T05:29:52;6.65;;;4.50;;
2928;SDS011;1474;51.460;7.150;2023-07-22T05:32:17;6.88;;;3.95;;
2928;SDS011;1474;51.460;7.150;2023-07-22T05:34:43;7.00;;;4.63;;
2928;SDS011;1474;51.460;7.150;2023-07-22T05:37:09;6.68;;;4.00;;
2928;SDS011;1474;51.460;7.150;2023-07-22T05:39:34;5.47;;;2.92;;
2928;SDS011;1474;51.460;7.150;2023-07-22T05:42:00;5.03;;;3.38;;
2928;SDS011;1474;51.460;7.150;2023-07-22T05:44:26;6.10;;;3.70;;
2928;SDS011;1474;51.460;7.150;2023-07-22T05:46:52;7.28;;;4.35;;
2928;SDS011;1474;51.460;7.150;2023-07-22T05:49:17;5.45;;;3.70;;
2928;SDS011;1474;51.460;7.150;2023-07-22T05:51:43;6.70;;;4.22;;
2928;SDS011;1474;51.460;7.150;2023-07-22T05:54:09;7.97;;;4.03;;
2928;SDS011;1474;51.460;7.150;2023-07-22T05:56:35;6.22;;;3.80;;
2928;SDS011;1474;51.460;7.150;2023-07-22T05:59:00;5.65;;;4.18;;
2928;SDS011;1474;51.460;7.150;2023-07-22T06:01:26;6.90;;;3.90;;
2928;SDS011;1474;51.460;7.150;2023-07-22T06:03:52;5.38;;;3.80;;
2928;SDS011;1474;51.460;7.150;2023-07-22T06:06:20;9.15;;;3.95;;
2928;SDS011;1474;51.460;7.150;2023-07-22T06:08:46;8.60;;;3.65;;
2928;SDS011;1474;51.460;7.150;2023-07-22T06:11:12;8.02;;;4.45;;
2928;SDS011;1474;51.460;7.150;2023-07-22T06:13:38;5.90;;;3.85;;
2928;SDS011;1474;51.460;7.150;2023-07-22T06:16:03;6.15;;;4.53;;
2928;SDS011;1474;51.460;7.150;2023-07-22T06:18:29;7.68;;;4.03;;
2928;SDS011;1474;51.460;7.150;2023-07-22T06:20:55;6.40;;;4.10;;
2928;SDS011;1474;51.460;7.150;2023-07-22T06:23:21;9.30;;;5.00;;
2928;SDS011;1474;51.460;7.150;2023-07-22T06:25:47;6.82;;;4.18;;
2928;SDS011;1474;51.460;7.150;2023-07-22T06:28:12;9.43;;;4.10;;
2928;SDS011;1474;51.460;7.150;2023-07-22T06:30:38;6.60;;;4.40;;
2928;SDS011;1474;51.460;7.150;2023-07-22T06:33:04;7.57;;;5.00;;
2928;SDS011;1474;51.460;7.150;2023-07-22T06:35:30;8.25;;;4.75;;
2928;SDS011;1474;51.460;7.150;2023-07-22T06:37:55;6.15;;;4.60;;
2928;SDS011;1474;51.460;7.150;2023-07-22T06:40:21;6.70;;;4.10;;
2928;SDS011;1474;51.460;7.150;2023-07-22T06:42:47;7.13;;;4.93;;
2928;SDS011;1474;51.460;7.150;2023-07-22T06:45:13;7.53;;;4.72;;
2928;SDS011;1474;51.460;7.150;2023-07-22T06:47:39;7.10;;;4.80;;
2928;SDS011;1474;51.460;7.150;2023-07-22T06:50:04;8.90;;;4.88;;
2928;SDS011;1474;51.460;7.150;2023-07-22T06:52:31;7.70;;;3.97;;
2928;SDS011;1474;51.460;7.150;2023-07-22T06:54:57;9.18;;;5.32;;
2928;SDS011;1474;51.460;7.150;2023-07-22T06:57:23;9.40;;;5.50;;
2928;SDS011;1474;51.460;7.150;2023-07-22T06:59:51;6.43;;;4.57;;
2928;SDS011;1474;51.460;7.150;2023-07-22T07:02:20;7.97;;;4.85;;
2928;SDS011;1474;51.460;7.150;2023-07-22T07:04:46;7.35;;;4.35;;
2928;SDS011;1474;51.460;7.150;2023-07-22T07:07:13;7.70;;;4.45;;
2928;SDS011;1474;51.460;7.150;2023-07-22T07:09:40;8.07;;;4.90;;
2928;SDS011;1474;51.460;7.150;2023-07-22T07:12:06;7.50;;;5.13;;
2928;SDS011;1474;51.460;7.150;2023-07-22T07:14:33;8.07;;;4.93;;
2928;SDS011;1474;51.460;7.150;2023-07-22T07:16:59;11.73;;;5.95;;
2928;SDS011;1474;51.460;7.150;2023-07-22T07:19:26;8.27;;;4.85;;
2928;SDS011;1474;51.460;7.150;2023-07-22T07:21:53;11.32;;;5.07;;
2928;SDS011;1474;51.460;7.150;2023-07-22T07:24:19;9.23;;;5.75;;
2928;SDS011;1474;51.460;7.150;2023-07-22T07:26:45;9.55;;;5.57;;
2928;SDS011;1474;51.460;7.150;2023-07-22T07:29:11;10.25;;;5.70;;
2928;SDS011;1474;51.460;7.150;2023-07-22T07:31:37;7.30;;;4.75;;
2928;SDS011;1474;51.460;7.150;2023-07-22T07:34:04;10.27;;;4.55;;
2928;SDS011;1474;51.460;7.150;2023-07-22T07:36:31;8.25;;;4.57;;
2928;SDS011;1474;51.460;7.150;2023-07-22T07:38:59;7.70;;;4.50;;
2928;SDS011;1474;51.460;7.150;2023-07-22T07:41:25;7.10;;;5.13;;
2928;SDS011;1474;51.460;7.150;2023-07-22T07:43:51;7.03;;;4.30;;
2928;SDS011;1474;51.460;7.150;2023-07-22T07:46:27;10.20;;;4.90;;
2928;SDS011;1474;51.460;7.150;2023-07-22T07:49:01;7.15;;;5.18;;
2928;SDS011;1474;51.460;7.150;2023-07-22T07:51:29;11.55;;;5.60;;
2928;SDS011;1474;51.460;7.150;2023-07-22T07:53:57;6.82;;;4.38;;
2928;SDS011;1474;51.460;7.150;2023-07-22T07:56:24;7.70;;;5.13;;
2928;SDS011;1474;51.460;7.150;2023-07-22T07:58:53;7.05;;;4.50;;
2928;SDS011;1474;51.460;7.150;2023-07-22T08:01:20;7.47;;;5.28;;
2928;SDS011;1474;51.460;7.150;2023-07-22T08:03:47;8.43;;;5.32;;
2928;SDS011;1474;51.460;7.150;2023-07-22T08:06:13;6.35;;;4.82;;
2928;SDS011;1474;51.460;7.150;2023-07-22T08:08:40;9.45;;;5.65;;
2928;SDS011;1474;51.460;7.150;2023-07-22T08:11:07;6.47;;;4.60;;
2928;SDS011;1474;51.460;7.150;2023-07-22T08:13:38;11.30;;;4.93;;
2928;SDS011;1474;51.460;7.150;2023-07-22T08:16:06;7.90;;;5.20;;
2928;SDS011;1474;51.460;7.150;2023-07-22T08:18:34;8.43;;;5.10;;
2928;SDS011;1474;51.460;7.150;2023-07-22T08:21:02;8.02;;;5.47;;
2928;SDS011;1474;51.460;7.150;2023-07-22T08:23:30;7.65;;;5.75;;
2928;SDS011;1474;51.460;7.150;2023-07-22T08:25:56;8.27;;;5.07;;
2928;SDS011;1474;51.460;7.150;2023-07-22T08:28:22;8.27;;;5.65;;
2928;SDS011;1474;51.460;7.150;2023-07-22T08:30:48;7.90;;;4.70;;
2928;SDS011;1474;51.460;7.150;2023-07-22T08:33:14;8.38;;;5.28;;
2928;SDS011;1474;51.460;7.150;2023-07-22T08:35:41;7.85;;;4.97;;
2928;SDS011;1474;51.460;7.150;2023-07-22T08:38:08;7.95;;;5.05;;
2928;SDS011;1474;51.460;7.150;2023-07-22T08:40:35;8.27;;;5.47;;
2928;SDS011;1474;51.460;7.150;2023-07-22T08:43:06;9.13;;;5.60;;
2928;SDS011;1474;51.460;7.150;2023-07-22T08:45:35;7.32;;;5.47;;
2928;SDS011;1474;51.460;7.150;2023-07-22T08:48:06;8.43;;;5.00;;
2928;SDS011;1474;51.460;7.150;2023-07-22T08:50:52;9.23;;;5.68;;
2928;SDS011;1474;51.460;7.150;2023-07-22T08:53:20;7.32;;;4.63;;
2928;SDS011;1474;51.460;7.150;2023-07-22T08:55:46;6.20;;;4.50;;
2928;SDS011;1474;51.460;7.150;2023-07-22T08:58:15;8.05;;;5.28;;
2928;SDS011;1474;51.460;7.150;2023-07-22T09:00:44;6.03;;;4.60;;
2928;SDS011;1474;51.460;7.150;2023-07-22T09:03:13;6.45;;;4.70;;
2928;SDS011;1474;51.460;7.150;2023-07-22T09:05:39;6.22;;;4.38;;
2928;SDS011;1474;51.460;7.150;2023-07-22T09:08:07;6.78;;;4.57;;
2928;SDS011;1474;51.460;7.150;2023-07-22T09:10:34;7.38;;;4.35;;
2928;SDS011;1474;51.460;7.150;2023-07-22T09:13:01;7.05;;;4.50;;
2928;SDS011;1474;51.460;7.150;2023-07-22T09:15:28;5.30;;;4.10;;
2928;SDS011;1474;51.460;7.150;2023-07-22T09:17:56;6.03;;;4.22;;
2928;SDS011;1474;51.460;7.150;2023-07-22T09:20:22;7.78;;;4.68;;
2928;SDS011;1474;51.460;7.150;2023-07-22T09:22:49;6.38;;;4.25;;
2928;SDS011;1474;51.460;7.150;2023-07-22T09:25:20;6.50;;;4.15;;
2928;SDS011;1474;51.460;7.150;2023-07-22T09:27:52;6.20;;;4.30;;
2928;SDS011;1474;51.460;7.150;2023-07-22T09:32:57;4.90;;;3.90;;
2928;SDS011;1474;51.460;7.150;2023-07-22T09:35:48;6.10;;;3.65;;
2928;SDS011;1474;51.460;7.150;2023-07-22T09:38:18;7.32;;;3.85;;
2928;SDS011;1474;51.460;7.150;2023-07-22T09:40:51;5.93;;;3.85;;
2928;SDS011;1474;51.460;7.150;2023-07-22T09:43:18;5.30;;;3.30;;
2928;SDS011;1474;51.460;7.150;2023-07-22T09:45:46;5.65;;;3.60;;
2928;SDS011;1474;51.460;7.150;2023-07-22T09:48:13;6.90;;;4.00;;
2928;SDS011;1474;51.460;7.150;2023-07-22T09:50:39;6.93;;;3.70;;
2928;SDS011;1474;51.460;7.150;2023-07-22T09:53:06;6.18;;;3.60;;
2928;SDS011;1474;51.460;7.150;2023-07-22T09:55:32;5.32;;;3.35;;
2928;SDS011;1474;51.460;7.150;2023-07-22T09:58:00;7.07;;;3.78;;
2928;SDS011;1474;51.460;7.150;2023-07-22T10:00:35;5.38;;;3.60;;
2928;SDS011;1474;51.460;7.150;2023-07-22T10:03:03;4.20;;;3.25;;
2928;SDS011;1474;51.460;7.150;2023-07-22T10:05:35;4.40;;;3.03;;
2928;SDS011;1474;51.460;7.150;2023-07-22T10:08:04;6.80;;;3.75;;
2928;SDS011;1474;51.460;7.150;2023-07-22T10:10:32;4.38;;;3.35;;
2928;SDS011;1474;51.460;7.150;2023-07-22T10:13:02;5.82;;;3.60;;
2928;SDS011;1474;51.460;7.150;2023-07-22T10:15:30;5.72;;;3.03;;
2928;SDS011;1474;51.460;7.150;2023-07-22T10:17:59;5.45;;;4.22;;
2928;SDS011;1474;51.460;7.150;2023-07-22T10:20:27;3.92;;;2.97;;
2928;SDS011;1474;51.460;7.150;2023-07-22T10:22:55;5.07;;;3.50;;
2928;SDS011;1474;51.460;7.150;2023-07-22T10:25:21;3.83;;;3.17;;
2928;SDS011;1474;51.460;7.150;2023-07-22T10:27:48;5.63;;;3.92;;
2928;SDS011;1474;51.460;7.150;2023-07-22T10:30:17;3.78;;;3.15;;
2928;SDS011;1474;51.460;7.150;2023-07-22T10:32:48;4.45;;;3.40;;
2928;SDS011;1474;51.460;7.150;2023-07-22T10:38:13;4.10;;;2.72;;
2928;SDS011;1474;51.460;7.150;2023-07-22T10:40:47;4.55;;;3.50;;
2928;SDS011;1474;51.460;7.150;2023-07-22T10:43:26;4.40;;;2.67;;
2928;SDS011;1474;51.460;7.150;2023-07-22T10:45:56;3.38;;;2.40;;
2928;SDS011;1474;51.460;7.150;2023-07-22T10:48:34;4.43;;;2.78;;
2928;SDS011;1474;51.460;7.150;2023-07-22T10:51:12;6.25;;;2.97;;
2928;SDS011;1474;51.460;7.150;2023-07-22T10:53:43;4.38;;;3.03;;
2928;SDS011;1474;51.460;7.150;2023-07-22T11:06:55;3.10;;;2.22;;
2928;SDS011;1474;51.460;7.150;2023-07-22T11:17:15;3.35;;;1.60;;
2928;SDS011;1474;51.460;7.150;2023-07-22T11:19:43;14.82;;;2.85;;
2928;SDS011;1474;51.460;7.150;2023-07-22T11:22:10;4.15;;;2.05;;
2928;SDS011;1474;51.460;7.150;2023-07-22T11:24:36;2.13;;;1.63;;
2928;SDS011;1474;51.460;7.150;2023-07-22T11:27:11;2.55;;;2.35;;
2928;SDS011;1474;51.460;7.150;2023-07-22T11:29:37;2.40;;;1.55;;
2928;SDS011;1474;51.460;7.150;2023-07-22T11:32:04;2.53;;;1.60;;
2928;SDS011;1474;51.460;7.150;2023-07-22T11:34:31;4.38;;;2.08;;
2928;SDS011;1474;51.460;7.150;2023-07-22T11:36:57;6.78;;;2.53;;
2928;SDS011;1474;51.460;7.150;2023-07-22T11:39:27;3.65;;;1.80;;
2928;SDS011;1474;51.460;7.150;2023-07-22T11:41:56;3.28;;;2.05;;
2928;SDS011;1474;51.460;7.150;2023-07-22T11:44:27;3.40;;;1.58;;
2928;SDS011;1474;51.460;7.150;2023-07-22T11:46:58;1.85;;;1.73;;
2928;SDS011;1474;51.460;7.150;2023-07-22T11:49:33;2.35;;;1.70;;
2928;SDS011;1474;51.460;7.150;2023-07-22T11:52:06;3.33;;;1.40;;
2928;SDS011;1474;51.460;7.150;2023-07-22T11:54:35;2.90;;;1.75;;
2928;SDS011;1474;51.460;7.150;2023-07-22T11:57:22;2.00;;;1.50;;
2928;SDS011;1474;51.460;7.150;2023-07-22T11:59:53;2.40;;;1.65;;
2928;SDS011;1474;51.460;7.150;2023-07-22T12:02:22;2.15;;;1.70;;
2928;SDS011;1474;51.460;7.150;2023-07-22T12:04:56;3.05;;;1.55;;
2928;SDS011;1474;51.460;7.150;2023-07-22T12:07:26;3.20;;;1.70;;
2928;SDS011;1474;51.460;7.150;2023-07-22T12:09:55;2.80;;;1.58;;
2928;SDS011;1474;51.460;7.150;2023-07-22T12:15:03;2.47;;;1.65;;
2928;SDS011;1474;51.460;7.150;2023-07-22T12:20:32;2.20;;;1.50;;
2928;SDS011;1474;51.460;7.150;2023-07-22T12:23:01;2.63;;;1.70;;
2928;SDS011;1474;51.460;7.150;2023-07-22T12:25:27;1.92;;;1.50;;
2928;SDS011;1474;51.460;7.150;2023-07-22T12:27:53;3.13;;;1.45;;
2928;SDS011;1474;51.460;7.150;2023-07-22T12:30:19;2.55;;;2.10;;
2928;SDS011;1474;51.460;7.150;2023-07-22T12:32:45;4.82;;;1.65;;
2928;SDS011;1474;51.460;7.150;2023-07-22T12:35:12;3.35;;;1.60;;
2928;SDS011;1474;51.460;7.150;2023-07-22T12:37:38;2.33;;;1.50;;
2928;SDS011;1474;51.460;7.150;2023-07-22T12:40:05;2.65;;;1.77;;
2928;SDS011;1474;51.460;7.150;2023-07-22T12:42:33;2.78;;;1.95;;
2928;SDS011;1474;51.460;7.150;2023-07-22T12:45:02;3.40;;;1.48;;
2928;SDS011;1474;51.460;7.150;2023-07-22T12:47:32;3.97;;;1.73;;
2928;SDS011;1474;51.460;7.150;2023-07-22T12:50:01;2.25;;;1.60;;
2928;SDS011;1474;51.460;7.150;2023-07-22T12:52:27;2.10;;;1.40;;
2928;SDS011;1474;51.460;7.150;2023-07-22T12:54:53;3.17;;;1.40;;
2928;SDS011;1474;51.460;7.150;2023-07-22T12:57:19;2.85;;;1.70;;
2928;SDS011;1474;51.460;7.150;2023-07-22T12:59:46;2.30;;;1.60;;
2928;SDS011;1474;51.460;7.150;2023-07-22T13:02:11;3.30;;;1.85;;
2928;SDS011;1474;51.460;7.150;2023-07-22T13:04:38;3.42;;;1.90;;
2928;SDS011;1474;51.460;7.150;2023-07-22T13:07:03;1.90;;;1.20;;
2928;SDS011;1474;51.460;7.150;2023-07-22T13:09:30;3.35;;;1.50;;
2928;SDS011;1474;51.460;7.150;2023-07-22T13:11:56;2.85;;;1.65;;
2928;SDS011;1474;51.460;7.150;2023-07-22T13:14:22;2.78;;;1.80;;
2928;SDS011;1474;51.460;7.150;2023-07-22T13:16:48;2.00;;;1.45;;
2928;SDS011;1474;51.460;7.150;2023-07-22T13:19:14;1.90;;;1.70;;
2928;SDS011;1474;51.460;7.150;2023-07-22T13:21:39;2.53;;;1.77;;
2928;SDS011;1474;51.460;7.150;2023-07-22T13:24:06;2.72;;;1.92;;
2928;SDS011;1474;51.460;7.150;2023-07-22T13:26:31;3.05;;;1.77;;
2928;SDS011;1474;51.460;7.150;2023-07-22T13:28:59;2.75;;;1.67;;
2928;SDS011;1474;51.460;7.150;2023-07-22T13:31:25;2.40;;;1.80;;
2928;SDS011;1474;51.460;7.150;2023-07-22T13:33:50;3.95;;;1.95;;
2928;SDS011;1474;51.460;7.150;2023-07-22T13:36:16;2.58;;;1.75;;
2928;SDS011;1474;51.460;7.150;2023-07-22T13:38:42;2.10;;;1.45;;
2928;SDS011;1474;51.460;7.150;2023-07-22T13:41:08;3.25;;;2.10;;
2928;SDS011;1474;51.460;7.150;2023-07-22T13:43:33;4.10;;;2.00;;
2928;SDS011;1474;51.460;7.150;2023-07-22T13:45:59;2.33;;;1.88;;
2928;SDS011;1474;51.460;7.150;2023-07-22T13:48:28;2.75;;;1.90;;
2928;SDS011;1474;51.460;7.150;2023-07-22T13:50:53;4.20;;;2.20;;
2928;SDS011;1474;51.460;7.150;2023-07-22T13:53:19;2.28;;;1.58;;
2928;SDS011;1474;51.460;7.150;2023-07-22T13:55:45;4.00;;;1.73;;
2928;SDS011;1474;51.460;7.150;2023-07-22T13:58:11;4.20;;;2.53;;
2928;SDS011;1474;51.460;7.150;2023-07-22T14:00:36;3.88;;;2.03;;
2928;SDS011;1474;51.460;7.150;2023-07-22T14:03:02;4.15;;;2.45;;
2928;SDS011;1474;51.460;7.150;2023-07-22T14:05:28;2.60;;;1.88;;
2928;SDS011;1474;51.460;7.150;2023-07-22T14:07:54;3.05;;;2.00;;
2928;SDS011;1474;51.460;7.150;2023-07-22T14:10:19;3.58;;;1.80;;
2928;SDS011;1474;51.460;7.150;2023-07-22T14:12:45;2.72;;;1.88;;
2928;SDS011;1474;51.460;7.150;2023-07-22T14:15:12;2.33;;;1.73;;
2928;SDS011;1474;51.460;7.150;2023-07-22T14:17:37;2.30;;;1.90;;
2928;SDS011;1474;51.460;7.150;2023-07-22T14:20:04;2.95;;;1.45;;
2928;SDS011;1474;51.460;7.150;2023-07-22T14:22:31;2.17;;;1.55;;
2928;SDS011;1474;51.460;7.150;2023-07-22T14:24:58;3.85;;;1.77;;
2928;SDS011;1474;51.460;7.150;2023-07-22T14:27:23;3.33;;;1.88;;
2928;SDS011;1474;51.460;7.150;2023-07-22T14:29:49;2.63;;;1.60;;
2928;SDS011;1474;51.460;7.150;2023-07-22T14:32:15;4.68;;;1.60;;
2928;SDS011;1474;51.460;7.150;2023-07-22T14:34:41;1.85;;;1.40;;
2928;SDS011;1474;51.460;7.150;2023-07-22T14:37:07;2.42;;;1.65;;
2928;SDS011;1474;51.460;7.150;2023-07-22T14:39:33;2.83;;;1.80;;
2928;SDS011;1474;51.460;7.150;2023-07-22T14:41:59;3.83;;;1.75;;
2928;SDS011;1474;51.460;7.150;2023-07-22T14:44:25;3.03;;;1.95;;
2928;SDS011;1474;51.460;7.150;2023-07-22T14:46:51;3.80;;;2.15;;
2928;SDS011;1474;51.460;7.150;2023-07-22T14:49:17;2.75;;;1.88;;
2928;SDS011;1474;51.460;7.150;2023-07-22T14:51:42;5.15;;;2.08;;
2928;SDS011;1474;51.460;7.150;2023-07-22T14:54:08;4.13;;;2.38;;
2928;SDS011;1474;51.460;7.150;2023-07-22T14:56:34;3.13;;;2.00;;
2928;SDS011;1474;51.460;7.150;2023-07-22T14:58:59;5.25;;;1.98;;
2928;SDS011;1474;51.460;7.150;2023-07-22T15:01:25;4.22;;;2.15;;
2928;SDS011;1474;51.460;7.150;2023-07-22T15:03:51;3.28;;;2.05;;
2928;SDS011;1474;51.460;7.150;2023-07-22T15:06:17;4.05;;;2.35;;
2928;SDS011;1474;51.460;7.150;2023-07-22T15:08:43;4.20;;;2.10;;
2928;SDS011;1474;51.460;7.150;2023-07-22T15:11:08;4.90;;;2.15;;
2928;SDS011;1474;51.460;7.150;2023-07-22T15:13:34;3.88;;;2.08;;
2928;SDS011;1474;51.460;7.150;2023-07-22T15:16:00;3.47;;;2.15;;
2928;SDS011;1474;51.460;7.150;2023-07-22T15:18:26;4.13;;;2.13;;
2928;SDS011;1474;51.460;7.150;2023-07-22T15:20:51;4.32;;;1.80;;
2928;SDS011;1474;51.460;7.150;2023-07-22T15:23:17;3.55;;;1.90;;
2928;SDS011;1474;51.460;7.150;2023-07-22T15:25:44;3.70;;;2.60;;
2928;SDS011;1474;51.460;7.150;2023-07-22T15:28:10;4.65;;;2.53;;
2928;SDS011;1474;51.460;7.150;2023-07-22T15:30:36;3.22;;;2.17;;
2928;SDS011;1474;51.460;7.150;2023-07-22T15:33:02;3.72;;;2.15;;
2928;SDS011;1474;51.460;7.150;2023-07-22T15:35:28;4.25;;;2.20;;
2928;SDS011;1474;51.460;7.150;2023-07-22T15:37:53;3.22;;;2.20;;
2928;SDS011;1474;51.460;7.150;2023-07-22T15:40:19;3.00;;;2.05;;
2928;SDS011;1474;51.460;7.150;2023-07-22T15:42:45;3.53;;;2.00;;
2928;SDS011;1474;51.460;7.150;2023-07-22T15:45:11;3.03;;;2.10;;